Benidorm, Spain
Current Conditions -  °F | °C
As of 7:00 AM on Saturday 29 Nov 2014 (Local Time) from LEAL Reporting Station
Broken Clouds Broken Clouds  
Wind Chill: 59°   Ceiling: 4000
Heat Index: 59°   Visibility: 5mi
Dew Point: 59°   Wind: 2mph
Humidity: 100%   Direction: NA
Pressure: 29.21"   Gusts: NA
Location:  38.54°N, 0.13°W
Report Text: LEAL 290600Z VRB02KT 8000 FEW025 BKN040 15/15 Q0989 NOSIG
Loading
Personal Weather Stations






























Interactive Weather Map New forecast layout! Learn more

10-Day Weather Forecast

Advertisements
Track Severe Weather on mobile